KJFK Airport (John F Kennedy Intl) Information

FAA: JFK - ICAO: KJFK

KJFK Airport Location

State New York
County Queens
City New York
KJFK Airport is 13 miles southeast of New York, NY.
Latitude 40-38-23.7400N
Longitude 073-46-43.2930W
Elevation 13ft

KJFK Airport METARs

METAR KJFK 240951Z 32006KT 4SM RA BR SCT007 BKN021 OVC037 16/15 A3003 RMK AO2 LTG DSNT SE SLP168 P0010 T01560150
Altimeter 30.03"
Temperature 15.6°C (60.1°F)
Wind 320° at 6KT
Clouds scattered at 700ft broken at 2,100ft overcast at 3,700ft
Visibility 4.0mi
Time observed: 2021-09-24T09:51:00Z

KJFK Airport Details

Status Operational
Activation January 1939
Ownership Public
Usage Public
Chart NEW YORK
ATC on-site Yes
Beacon schedule sunset-sunrise
Beacon color clear green

KJFK Airport Contacts

Owner PORT AUTHORITY OF NY AND NJ
Owner address 4 WORLD TRADE CENTER, 150 GREENWICH ST 18TH FLOO, NEW YORK, NY 10006
Owner phone 212-435-3640
Manager N/A
Manager address N/A, N/A
Manager phone N/A

KJFK Airport (John F Kennedy Intl) Radio Frequencies

KJFK (Airport) Radio Frequencies

UNICOM 122.95
Common traffic advisory frequency (CTAF) N/A